Portada
METAR-TAF:

METAR-TAF

Aeroports :

Saga, Japó

latitud: 33-09N, longitud: 130-18E, altitud: 2 m

Observació

L'informe es va fer fa 15 minuts, a les 23:00 UTC
Vent 5 kt del Nord-Est
Temperatura 2°C
Humitat 93%
Pressió 1026 hPa
Visibilitat 10 km o més
sense núvols per sota de 1500 mi sense presència de cumulonimbus.

METAR: RJFS 082300Z 04005KT CAVOK 02/01 Q1026

Hora: 08:15 (23:15 UTC)

Pronòstic

L'informe es va fer fa 6 hores i 10 minuts, a les 17:05 UTC
Pronòstic vàlid del 08 a les 18 UTC al 10 a les 00 UTC
Vent 5 kt del Nord
Visibilitat 10 km o més
Escasses núvols a una alçada de 3000 ft
Evolucionant progressivament
l' 08 a les 21 UTC al 08 a les 23 UTC
Vent 5 kt del Nord/Nord-Est
Evolucionant progressivament
l' 09 a les 06 UTC al 09 a les 09 UTC
Vent 5 kt del Sud/Sud-Oest
Evolucionant progressivament
l' 09 a les 15 UTC al 09 a les 18 UTC
Vent 5 kt del Nord/Nord-Est

TAF: RJFS 081705Z 0818/1000 36005KT 9999 FEW030 BECMG 0821/0823 02005KT BECMG 0906/0909 20005KT BECMG 0915/0918 02005KT

Observacions i pronòstics meteorològics de més de 4000 aeroports (METAR i TAF).

Les estacions disponibles són els punts grocs i vermells al mapa.

Posi el ratolí al punt desitjat per veure el nom de l'estació.

Feu clic per veure les observacions i els pronòstics meteorològics.

Per canviar el mapa: feu clic els botons verds amb una creu de color negre per apropar; al botó verd amb un guió per allunyar la imatge; o en les fletxes verdes per a mapes adjacents.


METAR-TAF: